createdAt,value
2018-01-03T00:01:28.692Z,1.33
2018-01-03T00:03:56.117Z,1.65
2018-01-03T00:06:23.651Z,1.50
2018-01-03T00:08:51.409Z,1.35
2018-01-03T00:11:18.837Z,1.70
2018-01-03T00:13:46.248Z,1.40
2018-01-03T00:16:13.690Z,1.25
2018-01-03T00:18:41.106Z,1.85
2018-01-03T00:21:09.321Z,1.85
2018-01-03T00:23:37.081Z,1.05
2018-01-03T00:26:04.537Z,1.55
2018-01-03T00:28:31.961Z,1.00
2018-01-03T00:30:59.385Z,1.80
2018-01-03T00:33:26.805Z,1.45
2018-01-03T00:35:54.268Z,1.60
2018-01-03T00:38:21.725Z,1.55
2018-01-03T00:40:49.152Z,1.33
2018-01-03T00:43:16.678Z,1.80
2018-01-03T00:45:44.106Z,1.83
2018-01-03T00:48:11.522Z,1.95
2018-01-03T00:50:39.018Z,1.42
2018-01-03T00:53:06.581Z,1.80
2018-01-03T00:55:33.992Z,1.37
2018-01-03T00:58:01.415Z,1.58
2018-01-03T01:00:28.845Z,1.58
2018-01-03T01:02:56.300Z,1.20
2018-01-03T01:05:23.760Z,1.45
2018-01-03T01:07:51.250Z,1.95
2018-01-03T01:10:18.669Z,1.15
2018-01-03T01:12:46.236Z,1.87
2018-01-03T01:15:13.658Z,1.70
2018-01-03T01:17:41.073Z,1.67
2018-01-03T01:20:08.618Z,1.60
2018-01-03T01:22:36.377Z,1.20
2018-01-03T01:25:04.014Z,1.70
2018-01-03T01:27:31.512Z,1.42
2018-01-03T01:29:59.065Z,1.90
2018-01-03T01:32:26.689Z,1.30
2018-01-03T01:34:54.181Z,1.35
2018-01-03T01:37:21.733Z,1.30
2018-01-03T01:39:49.153Z,1.33
2018-01-03T01:42:16.578Z,0.90
2018-01-03T01:44:44.002Z,1.52
2018-01-03T01:47:11.416Z,1.58
2018-01-03T01:49:39.614Z,1.58
2018-01-03T01:52:07.020Z,1.40
2018-01-03T01:54:34.557Z,1.00
2018-01-03T01:57:01.973Z,0.95
2018-01-03T01:59:29.403Z,0.95
2018-01-03T02:01:56.933Z,1.37
2018-01-03T02:04:24.393Z,0.95
2018-01-03T02:06:52.029Z,1.33
2018-01-03T02:09:19.518Z,0.93
2018-01-03T02:11:46.977Z,0.90
2018-01-03T02:14:14.535Z,1.20
2018-01-03T02:16:41.963Z,1.25
2018-01-03T02:19:09.385Z,1.17
2018-01-03T02:21:37.098Z,0.90
2018-01-03T02:24:04.504Z,1.37
2018-01-03T02:26:32.020Z,1.10
2018-01-03T02:28:59.581Z,1.25
2018-01-03T02:31:27.043Z,0.85
2018-01-03T02:33:54.815Z,1.35
2018-01-03T02:36:22.261Z,0.95
2018-01-03T02:38:49.687Z,0.90
2018-01-03T02:41:17.185Z,0.82
2018-01-03T02:43:44.606Z,1.02
2018-01-03T02:46:12.030Z,1.05
2018-01-03T02:48:39.450Z,0.90
2018-01-03T02:51:06.910Z,0.98
2018-01-03T02:53:34.365Z,1.02
2018-01-03T02:56:01.830Z,0.70
2018-01-03T02:58:29.389Z,1.10
2018-01-03T03:00:56.846Z,1.50
2018-01-03T03:03:24.265Z,1.00
2018-01-03T03:05:51.761Z,1.37
2018-01-03T03:08:19.631Z,0.98
2018-01-03T03:10:47.161Z,1.00
2018-01-03T03:13:14.578Z,1.75
2018-01-03T03:15:42.201Z,1.10
2018-01-03T03:18:09.969Z,1.10
2018-01-03T03:20:37.392Z,0.98
2018-01-03T03:23:04.884Z,0.80
2018-01-03T03:25:32.340Z,0.90
2018-01-03T03:27:59.948Z,0.90
2018-01-03T03:30:28.193Z,0.95
2018-01-03T03:32:55.834Z,1.05
2018-01-03T03:35:23.309Z,1.08
2018-01-03T03:37:50.836Z,1.20
2018-01-03T03:40:18.317Z,1.20
2018-01-03T03:42:46.085Z,0.85
2018-01-03T03:45:13.513Z,1.12
2018-01-03T03:47:40.937Z,0.80
2018-01-03T03:50:08.465Z,1.35
2018-01-03T03:52:36.040Z,1.35
2018-01-03T03:55:03.586Z,0.90
2018-01-03T03:57:31.017Z,1.10
2018-01-03T03:59:58.497Z,1.08
2018-01-03T04:02:26.057Z,1.23
2018-01-03T04:04:53.517Z,1.25
2018-01-03T04:07:20.968Z,0.90
2018-01-03T04:09:48.422Z,0.95
2018-01-03T04:12:15.885Z,0.70
2018-01-03T04:14:43.539Z,0.95
2018-01-03T04:17:11.113Z,1.40
2018-01-03T04:19:38.873Z,0.80
2018-01-03T04:22:06.336Z,1.23
2018-01-03T04:24:34.093Z,0.90
2018-01-03T04:27:01.861Z,0.80
2018-01-03T04:29:29.498Z,0.75
2018-01-03T04:31:56.980Z,0.90
2018-01-03T04:34:24.454Z,0.80
2018-01-03T04:36:51.902Z,0.75
2018-01-03T04:39:19.340Z,0.82
2018-01-03T04:41:46.918Z,0.88
2018-01-03T04:44:14.340Z,1.05
2018-01-03T04:46:41.836Z,0.70
2018-01-03T04:49:09.469Z,0.93
2018-01-03T04:51:36.957Z,0.95
2018-01-03T04:54:04.419Z,0.70
2018-01-03T04:56:31.869Z,0.90
2018-01-03T04:58:59.434Z,0.50
2018-01-03T05:01:27.066Z,1.00
2018-01-03T05:03:54.650Z,0.85
2018-01-03T05:06:22.078Z,0.95
2018-01-03T05:08:49.497Z,0.80
2018-01-03T05:11:16.931Z,0.80
2018-01-03T05:13:44.384Z,1.12
2018-01-03T05:16:11.869Z,1.10
2018-01-03T05:18:39.317Z,0.82
2018-01-03T05:21:06.758Z,1.35
2018-01-03T05:23:34.317Z,1.50
2018-01-03T05:26:02.086Z,1.23
2018-01-03T05:28:29.533Z,1.25
2018-01-03T05:30:56.957Z,1.10
2018-01-03T05:33:24.462Z,2.78
2018-01-03T05:35:52.003Z,1.80
2018-01-03T05:38:19.576Z,1.58
2018-01-03T05:40:47.022Z,2.28
2018-01-03T05:43:14.466Z,1.48
2018-01-03T05:45:41.953Z,1.95
2018-01-03T05:48:09.413Z,1.48
2018-01-03T05:50:36.854Z,2.20
2018-01-03T05:53:04.353Z,2.12
2018-01-03T05:55:31.802Z,1.58
2018-01-03T05:57:59.336Z,1.70
2018-01-03T06:00:26.771Z,2.33
2018-01-03T06:02:54.261Z,1.77
2018-01-03T06:05:21.681Z,2.05
2018-01-03T06:07:49.101Z,2.20
2018-01-03T06:10:16.524Z,3.00
2018-01-03T06:12:44.090Z,1.90
2018-01-03T06:15:11.513Z,1.75
2018-01-03T06:17:39.006Z,2.35
2018-01-03T06:20:06.461Z,2.33
2018-01-03T06:22:34.221Z,1.85
2018-01-03T06:25:01.867Z,2.42
2018-01-03T06:27:29.381Z,1.40
2018-01-03T06:29:56.806Z,2.20
2018-01-03T06:32:24.274Z,2.90
2018-01-03T06:34:51.818Z,1.87
2018-01-03T06:37:19.277Z,1.87
2018-01-03T06:39:46.698Z,2.20
2018-01-03T06:42:14.120Z,2.00
2018-01-03T06:44:42.160Z,2.45
2018-01-03T06:47:09.735Z,1.83
2018-01-03T06:49:37.153Z,1.80
2018-01-03T06:52:04.592Z,1.73
2018-01-03T06:54:32.106Z,2.03
2018-01-03T06:56:59.562Z,2.30
2018-01-03T06:59:27.210Z,1.70
2018-01-03T07:01:54.787Z,1.60
2018-01-03T07:04:22.437Z,1.70
2018-01-03T07:06:49.911Z,2.30
2018-01-03T07:09:17.361Z,1.33
2018-01-03T07:11:44.858Z,1.87
2018-01-03T07:14:12.310Z,1.70
2018-01-03T07:16:39.736Z,1.55
2018-01-03T07:19:07.156Z,1.15
2018-01-03T07:21:34.751Z,1.75
2018-01-03T07:24:02.390Z,1.50
2018-01-03T07:26:29.989Z,0.70
2018-01-03T07:28:57.600Z,1.37
2018-01-03T07:31:25.099Z,1.37
2018-01-03T07:33:52.652Z,1.77
2018-01-03T07:36:20.426Z,1.30
2018-01-03T07:38:48.071Z,2.20
2018-01-03T07:41:15.644Z,1.27
2018-01-03T07:43:43.272Z,1.02
2018-01-03T07:46:10.862Z,0.90
2018-01-03T07:48:38.325Z,1.15
2018-01-03T07:51:06.090Z,1.23
2018-01-03T07:53:33.717Z,1.48
2018-01-03T07:56:01.313Z,0.98
2018-01-03T07:58:28.733Z,1.33
2018-01-03T08:00:56.230Z,1.45
2018-01-03T08:03:23.862Z,1.40
2018-01-03T08:05:51.341Z,1.83
2018-01-03T08:08:18.912Z,1.00
2018-01-03T08:10:46.537Z,1.27
2018-01-03T08:13:13.957Z,1.45
2018-01-03T08:15:41.589Z,0.82
2018-01-03T08:18:09.360Z,1.37
2018-01-03T08:20:36.790Z,1.50
2018-01-03T08:23:04.205Z,1.23
2018-01-03T08:25:31.720Z,1.52
2018-01-03T08:27:59.141Z,1.23
2018-01-03T08:30:26.641Z,0.95
2018-01-03T08:32:54.062Z,1.75
2018-01-03T08:35:21.562Z,1.98
2018-01-03T08:37:48.986Z,1.80
2018-01-03T08:40:16.477Z,1.73
2018-01-03T08:42:44.245Z,1.60
2018-01-03T08:45:11.869Z,1.48
2018-01-03T08:47:39.457Z,1.90
2018-01-03T08:50:06.878Z,2.22
2018-01-03T08:52:34.301Z,2.35
2018-01-03T08:55:02.653Z,2.20
2018-01-03T08:57:30.122Z,2.72
2018-01-03T08:59:57.669Z,1.62
2018-01-03T09:02:25.133Z,2.85
2018-01-03T09:04:52.585Z,2.12
2018-01-03T09:07:20.015Z,2.40
2018-01-03T09:09:47.504Z,2.40
2018-01-03T09:12:14.930Z,2.58
2018-01-03T09:14:42.353Z,2.40
2018-01-03T09:17:09.773Z,2.00
2018-01-03T09:19:37.337Z,2.83
2018-01-03T09:22:04.760Z,2.42
2018-01-03T09:24:32.257Z,2.40
2018-01-03T09:26:59.886Z,3.60
2018-01-03T09:29:27.310Z,2.30
2018-01-03T09:31:54.930Z,2.72
2018-01-03T09:34:22.570Z,2.80
2018-01-03T09:36:50.094Z,2.50
2018-01-03T09:39:17.619Z,3.33
2018-01-03T09:41:45.383Z,2.75
2018-01-03T09:44:12.805Z,3.37
2018-01-03T09:46:40.298Z,2.20
2018-01-03T09:49:07.749Z,2.78
2018-01-03T09:51:35.513Z,2.12
2018-01-03T09:54:02.983Z,2.42
2018-01-03T09:56:30.605Z,2.05
2018-01-03T09:58:58.085Z,1.80
2018-01-03T10:01:25.562Z,2.80
2018-01-03T10:03:53.018Z,2.22
2018-01-03T10:06:20.478Z,2.47
2018-01-03T10:08:47.965Z,3.12
2018-01-03T10:11:16.309Z,2.33
2018-01-03T10:13:43.768Z,2.60
2018-01-03T10:16:11.192Z,2.33
2018-01-03T10:18:38.663Z,2.67
2018-01-03T10:21:06.141Z,1.73
2018-01-03T10:23:33.608Z,2.90
2018-01-03T10:26:01.059Z,2.42
2018-01-03T10:28:28.645Z,2.78
2018-01-03T10:30:56.128Z,2.80
2018-01-03T10:33:23.501Z,2.75
2018-01-03T10:35:50.926Z,2.40
2018-01-03T10:38:18.441Z,2.10
2018-01-03T10:40:45.869Z,3.00
2018-01-03T10:43:13.288Z,3.25
2018-01-03T10:45:40.822Z,1.67
2018-01-03T10:48:08.449Z,1.60
2018-01-03T10:50:36.218Z,2.20
2018-01-03T10:53:04.730Z,1.90
2018-01-03T10:55:32.150Z,2.17
2018-01-03T10:57:59.645Z,1.95
2018-01-03T11:00:27.061Z,2.17
2018-01-03T11:02:54.557Z,2.45
2018-01-03T11:05:22.185Z,2.35
2018-01-03T11:07:50.391Z,2.53
2018-01-03T11:10:17.809Z,2.12
2018-01-03T11:12:45.318Z,3.05
2018-01-03T11:15:12.942Z,2.10
2018-01-03T11:17:40.405Z,1.65
2018-01-03T11:20:07.864Z,2.70
2018-01-03T11:22:35.338Z,2.08
2018-01-03T11:25:02.906Z,2.25
2018-01-03T11:27:30.376Z,2.08
2018-01-03T11:29:57.998Z,3.12
2018-01-03T11:32:25.498Z,2.92
2018-01-03T11:34:52.917Z,2.42
2018-01-03T11:37:21.313Z,2.20
2018-01-03T11:39:48.887Z,1.92
2018-01-03T11:42:16.537Z,1.85
2018-01-03T11:44:44.037Z,1.65
2018-01-03T11:47:11.533Z,2.20
2018-01-03T11:49:38.945Z,1.40
2018-01-03T11:52:06.486Z,1.90
2018-01-03T11:54:34.113Z,1.52
2018-01-03T11:57:01.570Z,3.25
2018-01-03T11:59:29.030Z,2.20
2018-01-03T12:01:56.617Z,3.05
2018-01-03T12:04:24.043Z,2.10
2018-01-03T12:06:51.533Z,3.60
2018-01-03T12:09:19.165Z,2.45
2018-01-03T12:11:46.673Z,2.00
2018-01-03T12:14:14.122Z,2.30
2018-01-03T12:16:41.609Z,2.83
2018-01-03T12:19:09.025Z,2.20
2018-01-03T12:21:36.494Z,2.10
2018-01-03T12:24:03.950Z,1.90
2018-01-03T12:26:31.500Z,1.75
2018-01-03T12:28:58.935Z,2.17
2018-01-03T12:31:26.353Z,2.83
2018-01-03T12:33:54.813Z,3.47
2018-01-03T12:36:22.256Z,2.40
2018-01-03T12:38:49.722Z,3.33
2018-01-03T12:41:17.179Z,1.85
2018-01-03T12:43:44.637Z,2.53
2018-01-03T12:46:12.058Z,3.70
2018-01-03T12:48:39.481Z,1.90
2018-01-03T12:51:06.905Z,2.45
2018-01-03T12:53:34.397Z,2.60
2018-01-03T12:56:01.818Z,3.10
2018-01-03T12:58:29.266Z,3.28
2018-01-03T13:00:56.737Z,3.47
2018-01-03T13:03:24.298Z,4.00
2018-01-03T13:05:51.929Z,2.05
2018-01-03T13:08:19.354Z,2.75
2018-01-03T13:10:46.973Z,2.17
2018-01-03T13:13:14.739Z,2.60
2018-01-03T13:15:42.370Z,2.20
2018-01-03T13:18:09.866Z,2.42
2018-01-03T13:20:37.417Z,2.67
2018-01-03T13:23:04.840Z,3.20
2018-01-03T13:25:32.333Z,2.90
2018-01-03T13:27:59.754Z,2.17
2018-01-03T13:30:27.239Z,2.42
2018-01-03T13:32:54.713Z,2.55
2018-01-03T13:35:22.208Z,2.62
2018-01-03T13:37:49.934Z,2.95
2018-01-03T13:40:17.696Z,2.58
2018-01-03T13:42:45.122Z,3.08
2018-01-03T13:45:12.542Z,2.40
2018-01-03T13:47:40.079Z,2.80
2018-01-03T13:50:07.538Z,2.80
2018-01-03T13:52:35.166Z,2.60
2018-01-03T13:55:02.754Z,2.70
2018-01-03T13:57:30.512Z,3.05
2018-01-03T13:59:58.170Z,4.10
2018-01-03T14:02:25.640Z,1.58
2018-01-03T14:04:53.199Z,2.58
2018-01-03T14:07:20.612Z,3.42
2018-01-03T14:09:49.618Z,1.83
2018-01-03T14:12:17.033Z,2.17
2018-01-03T14:14:44.497Z,3.05
2018-01-03T14:17:12.157Z,2.95
2018-01-03T14:19:39.789Z,3.12
2018-01-03T14:22:07.426Z,3.35
2018-01-03T14:24:34.945Z,3.37
2018-01-03T14:27:03.263Z,2.67
2018-01-03T14:29:30.777Z,2.53
2018-01-03T14:31:58.309Z,1.95
2018-01-03T14:34:25.738Z,2.70
2018-01-03T14:36:53.218Z,1.95
2018-01-03T14:39:20.637Z,3.15
2018-01-03T14:41:48.134Z,1.80
2018-01-03T14:44:15.562Z,2.80
2018-01-03T14:46:43.049Z,1.95
2018-01-03T14:49:10.478Z,2.92
2018-01-03T14:51:37.974Z,2.20
2018-01-03T14:54:05.605Z,3.05
2018-01-03T14:56:33.198Z,2.15
2018-01-03T14:59:00.653Z,2.78
2018-01-03T15:01:28.408Z,2.55
2018-01-03T15:03:55.837Z,2.55
2018-01-03T15:06:23.259Z,2.62
2018-01-03T15:08:50.798Z,1.60
2018-01-03T15:11:18.214Z,2.15
2018-01-03T15:13:45.702Z,2.67
2018-01-03T15:16:13.158Z,3.35
2018-01-03T15:18:40.620Z,2.60
2018-01-03T15:21:08.073Z,3.03
2018-01-03T15:23:35.493Z,3.08
2018-01-03T15:26:02.917Z,2.92
2018-01-03T15:28:30.454Z,2.83
2018-01-03T15:30:57.882Z,3.40
2018-01-03T15:33:25.361Z,2.58
2018-01-03T15:35:52.789Z,4.40
2018-01-03T15:38:20.278Z,2.40
2018-01-03T15:40:47.737Z,2.53
2018-01-03T15:43:15.505Z,2.45
2018-01-03T15:45:42.974Z,3.25
2018-01-03T15:48:10.354Z,2.90
2018-01-03T15:50:37.781Z,3.10
2018-01-03T15:53:05.241Z,2.83
2018-01-03T15:55:32.792Z,3.20
2018-01-03T15:58:00.254Z,2.65
2018-01-03T16:00:27.693Z,2.67
2018-01-03T16:02:55.117Z,2.53
2018-01-03T16:05:22.620Z,3.10
2018-01-03T16:07:50.090Z,2.08
2018-01-03T16:10:17.519Z,3.40
2018-01-03T16:12:45.002Z,3.25
2018-01-03T16:15:12.612Z,3.03
2018-01-03T16:17:40.837Z,2.60
2018-01-03T16:20:08.606Z,3.47
2018-01-03T16:22:36.057Z,3.80
2018-01-03T16:25:03.688Z,3.47
2018-01-03T16:27:32.202Z,3.83
2018-01-03T16:29:59.841Z,3.37
2018-01-03T16:32:27.434Z,3.03
2018-01-03T16:34:54.949Z,3.72
2018-01-03T16:37:22.569Z,2.97
2018-01-03T16:39:49.989Z,3.78
2018-01-03T16:42:17.486Z,3.12
2018-01-03T16:44:44.910Z,3.00
2018-01-03T16:47:12.408Z,3.40
2018-01-03T16:49:39.945Z,2.65
2018-01-03T16:52:13.070Z,3.10
2018-01-03T16:54:40.594Z,3.10
2018-01-03T16:57:08.117Z,2.90
2018-01-03T16:59:35.609Z,2.87
2018-01-03T17:02:03.046Z,2.55
2018-01-03T17:04:30.469Z,3.12
2018-01-03T17:06:57.893Z,3.08
2018-01-03T17:09:25.441Z,3.72
2018-01-03T17:11:53.048Z,2.55
2018-01-03T17:14:21.242Z,2.72
2018-01-03T17:16:48.665Z,3.10
2018-01-03T17:19:16.189Z,2.87
2018-01-03T17:21:43.609Z,2.85
2018-01-03T17:24:11.037Z,3.20
2018-01-03T17:26:38.470Z,3.25
2018-01-03T17:29:05.894Z,3.05
2018-01-03T17:31:33.310Z,2.92
2018-01-03T17:34:00.729Z,4.07
2018-01-03T17:36:28.169Z,3.80
2018-01-03T17:38:55.757Z,2.17
2018-01-03T17:41:23.298Z,2.97
2018-01-03T17:43:50.717Z,2.33
2018-01-03T17:46:18.137Z,3.25
2018-01-03T17:48:45.589Z,4.15
2018-01-03T17:51:13.085Z,4.25
2018-01-03T17:53:40.601Z,4.62
2018-01-03T17:56:08.233Z,3.75
2018-01-03T17:58:35.653Z,3.05
2018-01-03T18:01:03.077Z,3.35
2018-01-03T18:03:30.689Z,4.05
2018-01-03T18:05:58.197Z,4.03
2018-01-03T18:08:25.850Z,4.80
2018-01-03T18:10:53.421Z,4.25
2018-01-03T18:13:20.849Z,3.30
2018-01-03T18:15:48.342Z,4.07
2018-01-03T18:18:15.801Z,3.20
2018-01-03T18:20:43.430Z,4.00
2018-01-03T18:23:11.017Z,3.80
2018-01-03T18:25:38.661Z,3.12
2018-01-03T18:28:06.246Z,2.70
2018-01-03T18:30:33.701Z,4.00
2018-01-03T18:33:01.331Z,3.50
2018-01-03T18:35:28.829Z,3.10
2018-01-03T18:37:56.288Z,3.25
2018-01-03T18:40:23.713Z,2.62
2018-01-03T18:42:51.133Z,2.90
2018-01-03T18:45:19.069Z,3.20
2018-01-03T18:47:46.697Z,3.25
2018-01-03T18:50:14.158Z,3.12
2018-01-03T18:52:41.741Z,3.00
2018-01-03T18:55:09.169Z,4.65
2018-01-03T18:57:36.664Z,4.07
2018-01-03T19:00:04.085Z,2.90
2018-01-03T19:02:31.581Z,2.40
2018-01-03T19:04:59.337Z,3.40
2018-01-03T19:07:26.762Z,2.55
2018-01-03T19:09:54.181Z,3.12
2018-01-03T19:12:21.609Z,2.97
2018-01-03T19:14:49.165Z,2.62
2018-01-03T19:17:16.633Z,2.42
2018-01-03T19:19:44.077Z,3.30
2018-01-03T19:22:11.502Z,2.72
2018-01-03T19:24:39.003Z,2.60
2018-01-03T19:27:06.525Z,3.90
2018-01-03T19:29:34.174Z,3.10
2018-01-03T19:32:01.566Z,2.37
2018-01-03T19:34:29.005Z,3.92
2018-01-03T19:36:56.615Z,3.28
2018-01-03T19:39:24.033Z,3.50
2018-01-03T19:41:51.513Z,3.20
2018-01-03T19:44:18.940Z,3.05
2018-01-03T19:46:46.370Z,3.45
2018-01-03T19:49:13.789Z,2.75
2018-01-03T19:51:41.241Z,3.97
2018-01-03T19:54:09.001Z,3.28
2018-01-03T19:56:36.433Z,3.42
2018-01-03T19:59:04.030Z,2.92
2018-01-03T20:01:31.458Z,3.30
2018-01-03T20:03:58.875Z,1.73
2018-01-03T20:06:26.300Z,2.55
2018-01-03T20:08:53.765Z,2.50
2018-01-03T20:11:21.310Z,3.12
2018-01-03T20:13:48.782Z,2.87
2018-01-03T20:16:16.405Z,2.50
2018-01-03T20:18:43.903Z,3.50
2018-01-03T20:21:11.454Z,3.03
2018-01-03T20:23:39.093Z,3.95
2018-01-03T20:26:06.565Z,3.10
2018-01-03T20:28:34.141Z,2.10
2018-01-03T20:31:01.600Z,3.75
2018-01-03T20:33:29.367Z,3.58
2018-01-03T20:35:56.817Z,3.83
2018-01-03T20:38:24.454Z,2.92
2018-01-03T20:40:51.946Z,3.70
2018-01-03T20:43:19.503Z,3.05
2018-01-03T20:45:47.465Z,3.15
2018-01-03T20:48:14.932Z,3.08
2018-01-03T20:50:42.398Z,2.95
2018-01-03T20:53:09.850Z,3.12
2018-01-03T20:55:37.337Z,2.90
2018-01-03T20:58:04.857Z,3.17
2018-01-03T21:00:32.313Z,3.75
2018-01-03T21:02:59.778Z,4.05
2018-01-03T21:05:27.211Z,3.85
2018-01-03T21:07:54.690Z,4.22
2018-01-03T21:10:22.321Z,3.95
2018-01-03T21:12:49.786Z,3.40
2018-01-03T21:15:17.273Z,5.25
2018-01-03T21:17:44.737Z,3.75
2018-01-03T21:20:12.162Z,3.15
2018-01-03T21:22:39.741Z,4.07
2018-01-03T21:25:07.222Z,3.58
2018-01-03T21:27:34.667Z,3.78
2018-01-03T21:30:02.093Z,4.15
2018-01-03T21:32:29.585Z,3.87
2018-01-03T21:34:57.337Z,4.12
2018-01-03T21:37:24.761Z,4.00
2018-01-03T21:39:52.261Z,4.25
2018-01-03T21:42:19.905Z,4.82
2018-01-03T21:44:47.325Z,5.20
2018-01-03T21:47:15.857Z,4.82
2018-01-03T21:49:43.492Z,4.72
2018-01-03T21:52:10.985Z,4.62
2018-01-03T21:54:38.409Z,4.25
2018-01-03T21:57:05.901Z,5.32
2018-01-03T21:59:33.464Z,6.00
2018-01-03T22:02:01.110Z,4.53
2018-01-03T22:04:28.572Z,6.10
2018-01-03T22:06:56.146Z,7.07
2018-01-03T22:09:23.586Z,5.55
2018-01-03T22:11:51.009Z,6.85
2018-01-03T22:14:19.216Z,5.22
2018-01-03T22:16:46.742Z,6.62
2018-01-03T22:19:14.953Z,4.53
2018-01-03T22:21:42.373Z,4.45
2018-01-03T22:24:09.797Z,4.18
2018-01-03T22:26:37.337Z,5.50
2018-01-03T22:29:04.987Z,6.00
2018-01-03T22:31:32.410Z,7.10
2018-01-03T22:34:00.818Z,6.22
2018-01-03T22:36:28.306Z,6.00
2018-01-03T22:38:55.689Z,4.90
2018-01-03T22:41:23.190Z,3.87
2018-01-03T22:43:50.773Z,5.50
2018-01-03T22:46:18.230Z,5.72
2018-01-03T22:48:45.686Z,5.87
2018-01-03T22:51:13.340Z,6.53
2018-01-03T22:53:40.812Z,7.03
2018-01-03T22:56:08.254Z,6.20
2018-01-03T22:58:35.687Z,6.00
2018-01-03T23:01:03.888Z,6.15
2018-01-03T23:03:31.363Z,5.50
2018-01-03T23:05:58.781Z,5.90
2018-01-03T23:08:26.278Z,5.97
2018-01-03T23:10:54.042Z,4.15
2018-01-03T23:13:21.498Z,5.32
2018-01-03T23:15:49.257Z,4.78
2018-01-03T23:18:16.901Z,5.32
2018-01-03T23:20:44.481Z,7.22
2018-01-03T23:23:11.941Z,6.00
2018-01-03T23:25:39.361Z,5.37
2018-01-03T23:28:06.793Z,6.47
2018-01-03T23:30:34.217Z,5.53
2018-01-03T23:33:01.704Z,4.68
2018-01-03T23:35:29.140Z,4.93
2018-01-03T23:37:56.690Z,5.15
2018-01-03T23:40:24.117Z,5.65
2018-01-03T23:42:51.537Z,4.90
2018-01-03T23:45:19.726Z,5.12
2018-01-03T23:47:47.174Z,5.28
2018-01-03T23:50:14.802Z,5.57
2018-01-03T23:52:42.262Z,5.65
2018-01-03T23:55:09.723Z,4.82
2018-01-03T23:57:37.178Z,4.62
